Airfield :
LOGIN :

Register | Disclaimer

   EN    FR    IT 

 










Legend :    VFR   Marginal VFR   IFR   Intensive IFR   Very Intensive IFR
Visi :
Ceiling :
>= 8 km
>= 3000ft
5 to 8 km
1000 to 3000 ft
1500m to 5 km
500 to 1000 ft
800 to 1500m
200 to 500 ft
< 800m
< 200 ft
Symbols :   Thunderstorms  Fog  Heavy snow  Heavy precipitations  Wind > 20 kt
SIGMETs :     Misc.  Thunderstorms  Icing  Turbulence  Mountain Waves  Volcanic Ashes






- Airport Elevation : 117 ft
- IATA code : NWI


EGSH - Norwich

CURRENT METAR :
  • 080320Z AUTO 19012KT 9999 FEW032/// 05/02 Q0983

EXPIRED METARs :
  • 080250Z AUTO 19013KT 9999 NCD 05/02 Q0983
  • 080220Z AUTO 18014KT 9999 NCD 05/02 Q0983
  • 080150Z AUTO 19012KT 9999 NCD 05/02 Q0983
  • 080120Z AUTO 18013KT 140V220 9999 NCD 05/03 Q0983
  • 080050Z AUTO 18012KT 9999 NCD 05/03 Q0983

TAF TAF EGSH
Valid from the 08 at 03:00 until the 08 at 12:00 UTC


080153Z 0803/0812 19015KT 9999 FEW035
TEMPO 0803/0807 20017G27KT
TEMPO 0807/0812 20020G32KT
BECMG 0809/0812 23020G32KT
ATIS : +44 1603 420 640



MET'MAP, your aeronautical weather chart ! - Copyright ORBIFLY December 2007 - Disclaimer

ORBIFLY MET'MAP TEAM :

Programming & Development : Alexandra Zaïnal
Concept & original design : Baudouin d'Aumeries
Assistance for programming : Marc-Olivier Méhu
Technical & hardware support : Manuel Goepfert

Contact : metmap@orbifly.com




SOURCES & CREDITS :

   NOAA